sensor_id;sensor_type;location;lat;lon;timestamp;temperature;humidity
8824;DHT22;4448;50.904;4.694;2022-11-25T00:01:23;11.90;99.90
8824;DHT22;4448;50.904;4.694;2022-11-25T00:03:50;11.70;99.90
8824;DHT22;4448;50.904;4.694;2022-11-25T00:06:26;11.80;99.90
8824;DHT22;4448;50.904;4.694;2022-11-25T00:09:06;11.80;99.90
8824;DHT22;4448;50.904;4.694;2022-11-25T00:11:36;11.80;99.90
8824;DHT22;4448;50.904;4.694;2022-11-25T00:14:02;12.00;99.90
8824;DHT22;4448;50.904;4.694;2022-11-25T00:16:28;11.80;99.90
8824;DHT22;4448;50.904;4.694;2022-11-25T00:18:55;11.80;99.90
8824;DHT22;4448;50.904;4.694;2022-11-25T00:21:22;11.80;99.90
8824;DHT22;4448;50.904;4.694;2022-11-25T00:23:57;11.80;99.90
8824;DHT22;4448;50.904;4.694;2022-11-25T00:26:23;11.70;99.90
8824;DHT22;4448;50.904;4.694;2022-11-25T00:28:50;11.70;99.90
8824;DHT22;4448;50.904;4.694;2022-11-25T00:31:21;11.70;99.90
8824;DHT22;4448;50.904;4.694;2022-11-25T00:33:48;11.70;99.90
8824;DHT22;4448;50.904;4.694;2022-11-25T00:36:24;11.70;99.90
8824;DHT22;4448;50.904;4.694;2022-11-25T00:38:54;11.60;99.90
8824;DHT22;4448;50.904;4.694;2022-11-25T00:41:21;11.50;99.90
8824;DHT22;4448;50.904;4.694;2022-11-25T00:44:06;11.50;99.90
8824;DHT22;4448;50.904;4.694;2022-11-25T00:46:51;11.50;99.90
8824;DHT22;4448;50.904;4.694;2022-11-25T00:49:16;10.30;99.90
8824;DHT22;4448;50.904;4.694;2022-11-25T00:51:42;11.40;99.90
8824;DHT22;4448;50.904;4.694;2022-11-25T00:54:07;11.40;99.90
8824;DHT22;4448;50.904;4.694;2022-11-25T00:56:33;11.40;99.90
8824;DHT22;4448;50.904;4.694;2022-11-25T00:58:59;11.30;99.90
8824;DHT22;4448;50.904;4.694;2022-11-25T01:01:25;11.40;99.90
8824;DHT22;4448;50.904;4.694;2022-11-25T01:03:52;11.40;99.90
8824;DHT22;4448;50.904;4.694;2022-11-25T01:06:18;11.30;99.90
8824;DHT22;4448;50.904;4.694;2022-11-25T01:08:44;11.20;99.90
8824;DHT22;4448;50.904;4.694;2022-11-25T01:11:11;11.10;99.90
8824;DHT22;4448;50.904;4.694;2022-11-25T01:13:37;11.00;99.90
8824;DHT22;4448;50.904;4.694;2022-11-25T01:16:04;11.00;99.90
8824;DHT22;4448;50.904;4.694;2022-11-25T01:18:31;10.90;99.90
8824;DHT22;4448;50.904;4.694;2022-11-25T01:21:11;10.80;99.90
8824;DHT22;4448;50.904;4.694;2022-11-25T01:23:38;10.60;99.90
8824;DHT22;4448;50.904;4.694;2022-11-25T01:26:09;10.50;99.90
8824;DHT22;4448;50.904;4.694;2022-11-25T01:28:35;10.30;99.90
8824;DHT22;4448;50.904;4.694;2022-11-25T01:31:07;10.00;99.90
8824;DHT22;4448;50.904;4.694;2022-11-25T01:33:34;9.80;99.90
8824;DHT22;4448;50.904;4.694;2022-11-25T01:36:04;9.60;99.90
8824;DHT22;4448;50.904;4.694;2022-11-25T01:38:31;9.50;99.90
8824;DHT22;4448;50.904;4.694;2022-11-25T01:40:58;9.50;99.90
8824;DHT22;4448;50.904;4.694;2022-11-25T01:43:24;9.50;99.90
8824;DHT22;4448;50.904;4.694;2022-11-25T01:45:52;9.40;99.90
8824;DHT22;4448;50.904;4.694;2022-11-25T01:48:23;9.40;99.90
8824;DHT22;4448;50.904;4.694;2022-11-25T01:50:51;9.40;99.90
8824;DHT22;4448;50.904;4.694;2022-11-25T01:53:18;9.30;99.90
8824;DHT22;4448;50.904;4.694;2022-11-25T01:55:51;9.30;99.90
8824;DHT22;4448;50.904;4.694;2022-11-25T01:58:25;9.30;99.90
8824;DHT22;4448;50.904;4.694;2022-11-25T02:00:53;9.30;99.90
8824;DHT22;4448;50.904;4.694;2022-11-25T02:03:25;9.30;99.90
8824;DHT22;4448;50.904;4.694;2022-11-25T02:06:04;9.10;99.90
8824;DHT22;4448;50.904;4.694;2022-11-25T02:08:32;9.10;99.90
8824;DHT22;4448;50.904;4.694;2022-11-25T02:11:00;9.00;99.90
8824;DHT22;4448;50.904;4.694;2022-11-25T02:13:26;9.00;99.90
8824;DHT22;4448;50.904;4.694;2022-11-25T02:15:53;9.00;99.90
8824;DHT22;4448;50.904;4.694;2022-11-25T02:18:18;9.00;99.90
8824;DHT22;4448;50.904;4.694;2022-11-25T02:20:44;8.90;99.90
8824;DHT22;4448;50.904;4.694;2022-11-25T02:23:35;8.90;99.90
8824;DHT22;4448;50.904;4.694;2022-11-25T02:26:03;8.90;99.90
8824;DHT22;4448;50.904;4.694;2022-11-25T02:28:30;8.90;99.90
8824;DHT22;4448;50.904;4.694;2022-11-25T02:30:57;9.20;99.90
8824;DHT22;4448;50.904;4.694;2022-11-25T02:33:24;8.90;99.90
8824;DHT22;4448;50.904;4.694;2022-11-25T02:35:58;8.90;99.90
8824;DHT22;4448;50.904;4.694;2022-11-25T02:38:49;8.90;99.90
8824;DHT22;4448;50.904;4.694;2022-11-25T02:43:49;8.80;99.90
8824;DHT22;4448;50.904;4.694;2022-11-25T02:46:18;8.80;99.90
8824;DHT22;4448;50.904;4.694;2022-11-25T02:48:44;8.90;99.90
8824;DHT22;4448;50.904;4.694;2022-11-25T02:51:13;8.90;99.90
8824;DHT22;4448;50.904;4.694;2022-11-25T02:53:39;8.90;99.90
8824;DHT22;4448;50.904;4.694;2022-11-25T02:56:05;8.80;99.90
8824;DHT22;4448;50.904;4.694;2022-11-25T02:58:31;8.90;99.90
8824;DHT22;4448;50.904;4.694;2022-11-25T03:00:57;8.90;99.90
8824;DHT22;4448;50.904;4.694;2022-11-25T03:03:22;8.90;99.90
8824;DHT22;4448;50.904;4.694;2022-11-25T03:05:48;9.40;99.90
8824;DHT22;4448;50.904;4.694;2022-11-25T03:08:14;8.80;99.90
8824;DHT22;4448;50.904;4.694;2022-11-25T03:10:40;8.80;99.90
8824;DHT22;4448;50.904;4.694;2022-11-25T03:13:07;8.80;99.90
8824;DHT22;4448;50.904;4.694;2022-11-25T03:15:34;8.90;99.90
8824;DHT22;4448;50.904;4.694;2022-11-25T03:18:00;8.80;99.90
8824;DHT22;4448;50.904;4.694;2022-11-25T03:20:26;8.80;99.90
8824;DHT22;4448;50.904;4.694;2022-11-25T03:22:52;8.80;99.90
8824;DHT22;4448;50.904;4.694;2022-11-25T03:25:18;8.80;99.90
8824;DHT22;4448;50.904;4.694;2022-11-25T03:27:44;8.70;99.90
8824;DHT22;4448;50.904;4.694;2022-11-25T03:30:14;8.80;99.90
8824;DHT22;4448;50.904;4.694;2022-11-25T03:32:40;8.70;99.90
8824;DHT22;4448;50.904;4.694;2022-11-25T03:35:07;8.90;99.90
8824;DHT22;4448;50.904;4.694;2022-11-25T03:37:33;8.60;99.90
8824;DHT22;4448;50.904;4.694;2022-11-25T03:39:58;8.60;99.90
8824;DHT22;4448;50.904;4.694;2022-11-25T03:42:24;8.60;99.90
8824;DHT22;4448;50.904;4.694;2022-11-25T03:44:49;8.50;99.90
8824;DHT22;4448;50.904;4.694;2022-11-25T03:47:15;8.60;99.90
8824;DHT22;4448;50.904;4.694;2022-11-25T03:49:41;8.60;99.90
8824;DHT22;4448;50.904;4.694;2022-11-25T03:52:06;8.90;99.90
8824;DHT22;4448;50.904;4.694;2022-11-25T03:54:32;8.50;99.90
8824;DHT22;4448;50.904;4.694;2022-11-25T03:56:58;8.50;99.90
8824;DHT22;4448;50.904;4.694;2022-11-25T03:59:23;8.50;99.90
8824;DHT22;4448;50.904;4.694;2022-11-25T04:01:49;8.50;99.90
8824;DHT22;4448;50.904;4.694;2022-11-25T04:04:14;8.50;99.90
8824;DHT22;4448;50.904;4.694;2022-11-25T04:06:40;8.50;99.90
8824;DHT22;4448;50.904;4.694;2022-11-25T04:09:07;8.90;99.90
8824;DHT22;4448;50.904;4.694;2022-11-25T04:11:33;8.60;99.90
8824;DHT22;4448;50.904;4.694;2022-11-25T04:14:18;8.50;99.90
8824;DHT22;4448;50.904;4.694;2022-11-25T04:16:43;8.60;99.90
8824;DHT22;4448;50.904;4.694;2022-11-25T04:19:09;8.60;99.90
8824;DHT22;4448;50.904;4.694;2022-11-25T04:21:35;8.70;99.90
8824;DHT22;4448;50.904;4.694;2022-11-25T04:24:00;8.70;99.90
8824;DHT22;4448;50.904;4.694;2022-11-25T04:26:26;8.60;99.90
8824;DHT22;4448;50.904;4.694;2022-11-25T04:28:52;8.60;99.90
8824;DHT22;4448;50.904;4.694;2022-11-25T04:31:18;8.60;99.90
8824;DHT22;4448;50.904;4.694;2022-11-25T04:33:43;8.60;99.90
8824;DHT22;4448;50.904;4.694;2022-11-25T04:36:09;8.60;99.90
8824;DHT22;4448;50.904;4.694;2022-11-25T04:38:35;8.60;99.90
8824;DHT22;4448;50.904;4.694;2022-11-25T04:41:01;9.00;99.90
8824;DHT22;4448;50.904;4.694;2022-11-25T04:43:26;8.80;99.90
8824;DHT22;4448;50.904;4.694;2022-11-25T04:45:52;8.50;99.90
8824;DHT22;4448;50.904;4.694;2022-11-25T04:48:18;8.60;99.90
8824;DHT22;4448;50.904;4.694;2022-11-25T04:50:44;8.60;99.90
8824;DHT22;4448;50.904;4.694;2022-11-25T04:53:10;8.60;99.90
8824;DHT22;4448;50.904;4.694;2022-11-25T04:55:36;8.50;99.90
8824;DHT22;4448;50.904;4.694;2022-11-25T04:58:02;8.50;99.90
8824;DHT22;4448;50.904;4.694;2022-11-25T05:00:27;8.50;99.90
8824;DHT22;4448;50.904;4.694;2022-11-25T05:02:53;8.50;99.90
8824;DHT22;4448;50.904;4.694;2022-11-25T05:05:19;8.20;99.90
8824;DHT22;4448;50.904;4.694;2022-11-25T05:07:44;8.50;99.90
8824;DHT22;4448;50.904;4.694;2022-11-25T05:10:10;8.50;99.90
8824;DHT22;4448;50.904;4.694;2022-11-25T05:12:36;8.50;99.90
8824;DHT22;4448;50.904;4.694;2022-11-25T05:15:02;8.50;99.90
8824;DHT22;4448;50.904;4.694;2022-11-25T05:17:31;8.50;99.90
8824;DHT22;4448;50.904;4.694;2022-11-25T05:19:56;8.50;99.90
8824;DHT22;4448;50.904;4.694;2022-11-25T05:22:25;8.50;99.90
8824;DHT22;4448;50.904;4.694;2022-11-25T05:24:51;9.00;99.90
8824;DHT22;4448;50.904;4.694;2022-11-25T05:27:17;8.50;99.90
8824;DHT22;4448;50.904;4.694;2022-11-25T05:29:43;8.50;99.90
8824;DHT22;4448;50.904;4.694;2022-11-25T05:32:08;8.40;99.90
8824;DHT22;4448;50.904;4.694;2022-11-25T05:34:35;8.40;99.90
8824;DHT22;4448;50.904;4.694;2022-11-25T05:37:01;8.40;99.90
8824;DHT22;4448;50.904;4.694;2022-11-25T05:39:27;8.40;99.90
8824;DHT22;4448;50.904;4.694;2022-11-25T05:41:52;8.40;99.90
8824;DHT22;4448;50.904;4.694;2022-11-25T05:44:18;8.30;99.90
8824;DHT22;4448;50.904;4.694;2022-11-25T05:46:44;8.40;99.90
8824;DHT22;4448;50.904;4.694;2022-11-25T05:49:14;8.30;99.90
8824;DHT22;4448;50.904;4.694;2022-11-25T05:51:40;8.30;99.90
8824;DHT22;4448;50.904;4.694;2022-11-25T05:54:06;8.30;99.90
8824;DHT22;4448;50.904;4.694;2022-11-25T05:56:31;8.40;99.90
8824;DHT22;4448;50.904;4.694;2022-11-25T05:59:01;8.30;99.90
8824;DHT22;4448;50.904;4.694;2022-11-25T06:01:27;8.60;99.90
8824;DHT22;4448;50.904;4.694;2022-11-25T06:03:52;8.70;99.90
8824;DHT22;4448;50.904;4.694;2022-11-25T06:06:18;8.40;99.90
8824;DHT22;4448;50.904;4.694;2022-11-25T06:08:44;8.30;99.90
8824;DHT22;4448;50.904;4.694;2022-11-25T06:11:12;8.20;99.90
8824;DHT22;4448;50.904;4.694;2022-11-25T06:13:39;8.10;99.90
8824;DHT22;4448;50.904;4.694;2022-11-25T06:16:11;8.10;99.90
8824;DHT22;4448;50.904;4.694;2022-11-25T06:18:37;8.20;99.90
8824;DHT22;4448;50.904;4.694;2022-11-25T06:21:05;8.20;99.90
8824;DHT22;4448;50.904;4.694;2022-11-25T06:23:31;8.10;99.90
8824;DHT22;4448;50.904;4.694;2022-11-25T06:26:10;8.20;99.90
8824;DHT22;4448;50.904;4.694;2022-11-25T06:28:36;8.20;99.90
8824;DHT22;4448;50.904;4.694;2022-11-25T06:31:07;8.20;99.90
8824;DHT22;4448;50.904;4.694;2022-11-25T06:33:33;8.20;99.90
8824;DHT22;4448;50.904;4.694;2022-11-25T06:36:02;8.10;99.90
8824;DHT22;4448;50.904;4.694;2022-11-25T06:38:29;8.20;99.90
8824;DHT22;4448;50.904;4.694;2022-11-25T06:41:00;8.50;99.90
8824;DHT22;4448;50.904;4.694;2022-11-25T06:43:26;8.10;99.90
8824;DHT22;4448;50.904;4.694;2022-11-25T06:45:51;7.90;99.90
8824;DHT22;4448;50.904;4.694;2022-11-25T06:48:17;8.00;99.90
8824;DHT22;4448;50.904;4.694;2022-11-25T06:50:43;8.00;99.90
8824;DHT22;4448;50.904;4.694;2022-11-25T06:53:08;8.00;99.90
8824;DHT22;4448;50.904;4.694;2022-11-25T06:55:34;8.50;99.90
8824;DHT22;4448;50.904;4.694;2022-11-25T06:57:59;8.00;99.90
8824;DHT22;4448;50.904;4.694;2022-11-25T07:00:25;8.00;99.90
8824;DHT22;4448;50.904;4.694;2022-11-25T07:02:51;8.00;99.90
8824;DHT22;4448;50.904;4.694;2022-11-25T07:05:16;8.00;99.90
8824;DHT22;4448;50.904;4.694;2022-11-25T07:07:42;8.00;99.90
8824;DHT22;4448;50.904;4.694;2022-11-25T07:10:08;8.00;99.90
8824;DHT22;4448;50.904;4.694;2022-11-25T07:12:33;8.00;99.90
8824;DHT22;4448;50.904;4.694;2022-11-25T07:14:59;8.00;99.90
8824;DHT22;4448;50.904;4.694;2022-11-25T07:17:25;8.00;99.90
8824;DHT22;4448;50.904;4.694;2022-11-25T07:19:50;8.00;99.90
8824;DHT22;4448;50.904;4.694;2022-11-25T07:22:16;8.00;99.90
8824;DHT22;4448;50.904;4.694;2022-11-25T07:24:41;7.90;99.90
8824;DHT22;4448;50.904;4.694;2022-11-25T07:27:07;8.00;99.90
8824;DHT22;4448;50.904;4.694;2022-11-25T07:29:33;8.00;99.90
8824;DHT22;4448;50.904;4.694;2022-11-25T07:32:00;8.00;99.90
8824;DHT22;4448;50.904;4.694;2022-11-25T07:34:26;8.00;99.90
8824;DHT22;4448;50.904;4.694;2022-11-25T07:36:52;8.00;99.90
8824;DHT22;4448;50.904;4.694;2022-11-25T07:39:20;8.60;99.90
8824;DHT22;4448;50.904;4.694;2022-11-25T07:41:49;8.10;99.90
8824;DHT22;4448;50.904;4.694;2022-11-25T07:44:15;8.20;99.90
8824;DHT22;4448;50.904;4.694;2022-11-25T07:46:42;8.30;99.90
8824;DHT22;4448;50.904;4.694;2022-11-25T07:49:11;8.40;99.90
8824;DHT22;4448;50.904;4.694;2022-11-25T07:51:42;8.60;99.90
8824;DHT22;4448;50.904;4.694;2022-11-25T07:54:10;8.90;99.90
8824;DHT22;4448;50.904;4.694;2022-11-25T07:56:38;9.40;99.90
8824;DHT22;4448;50.904;4.694;2022-11-25T07:59:05;9.10;99.90
8824;DHT22;4448;50.904;4.694;2022-11-25T08:01:31;9.30;99.90
8824;DHT22;4448;50.904;4.694;2022-11-25T08:03:56;9.50;99.90
8824;DHT22;4448;50.904;4.694;2022-11-25T08:06:27;9.60;99.90
8824;DHT22;4448;50.904;4.694;2022-11-25T08:08:55;9.80;99.90
8824;DHT22;4448;50.904;4.694;2022-11-25T08:11:27;9.80;99.90
8824;DHT22;4448;50.904;4.694;2022-11-25T08:13:54;9.80;99.90
8824;DHT22;4448;50.904;4.694;2022-11-25T08:16:21;10.00;99.90
8824;DHT22;4448;50.904;4.694;2022-11-25T08:18:47;10.10;99.90
8824;DHT22;4448;50.904;4.694;2022-11-25T08:21:17;10.30;99.90
8824;DHT22;4448;50.904;4.694;2022-11-25T08:23:43;10.30;99.90
8824;DHT22;4448;50.904;4.694;2022-11-25T08:26:15;10.40;99.90
8824;DHT22;4448;50.904;4.694;2022-11-25T08:28:41;10.30;99.90
8824;DHT22;4448;50.904;4.694;2022-11-25T08:31:30;10.50;99.90
8824;DHT22;4448;50.904;4.694;2022-11-25T08:33:57;10.60;99.90
8824;DHT22;4448;50.904;4.694;2022-11-25T08:36:24;10.60;99.90
8824;DHT22;4448;50.904;4.694;2022-11-25T08:38:54;11.00;99.90
8824;DHT22;4448;50.904;4.694;2022-11-25T08:41:32;10.60;99.90
8824;DHT22;4448;50.904;4.694;2022-11-25T08:44:00;10.50;99.90
8824;DHT22;4448;50.904;4.694;2022-11-25T08:46:28;10.50;99.90
8824;DHT22;4448;50.904;4.694;2022-11-25T08:48:54;10.40;99.90
8824;DHT22;4448;50.904;4.694;2022-11-25T08:51:23;10.90;99.90
8824;DHT22;4448;50.904;4.694;2022-11-25T08:53:50;10.40;99.90
8824;DHT22;4448;50.904;4.694;2022-11-25T08:56:16;10.70;99.90
8824;DHT22;4448;50.904;4.694;2022-11-25T08:58:42;11.20;99.90
8824;DHT22;4448;50.904;4.694;2022-11-25T09:01:10;11.30;99.90
8824;DHT22;4448;50.904;4.694;2022-11-25T09:03:39;11.60;99.90
8824;DHT22;4448;50.904;4.694;2022-11-25T09:06:06;11.80;99.90
8824;DHT22;4448;50.904;4.694;2022-11-25T09:08:32;12.00;99.90
8824;DHT22;4448;50.904;4.694;2022-11-25T09:10:59;12.50;99.90
8824;DHT22;4448;50.904;4.694;2022-11-25T09:13:25;11.90;99.90
8824;DHT22;4448;50.904;4.694;2022-11-25T09:15:51;11.80;99.90
8824;DHT22;4448;50.904;4.694;2022-11-25T09:18:17;11.80;99.90
8824;DHT22;4448;50.904;4.694;2022-11-25T09:20:45;11.90;99.90
8824;DHT22;4448;50.904;4.694;2022-11-25T09:23:11;12.00;99.90
8824;DHT22;4448;50.904;4.694;2022-11-25T09:25:37;12.20;99.90
8824;DHT22;4448;50.904;4.694;2022-11-25T09:28:04;11.70;99.90
8824;DHT22;4448;50.904;4.694;2022-11-25T09:30:30;11.60;99.90
8824;DHT22;4448;50.904;4.694;2022-11-25T09:32:56;11.40;99.90
8824;DHT22;4448;50.904;4.694;2022-11-25T09:35:23;11.00;99.90
8824;DHT22;4448;50.904;4.694;2022-11-25T09:37:48;10.80;99.90
8824;DHT22;4448;50.904;4.694;2022-11-25T09:40:20;11.00;99.90
8824;DHT22;4448;50.904;4.694;2022-11-25T09:43:43;11.30;99.90
8824;DHT22;4448;50.904;4.694;2022-11-25T09:54:31;12.40;99.90
8824;DHT22;4448;50.904;4.694;2022-11-25T09:57:30;12.00;99.90
8824;DHT22;4448;50.904;4.694;2022-11-25T10:00:09;11.60;99.90
8824;DHT22;4448;50.904;4.694;2022-11-25T10:08:15;10.90;99.90
8824;DHT22;4448;50.904;4.694;2022-11-25T10:10:45;10.90;99.90
8824;DHT22;4448;50.904;4.694;2022-11-25T10:13:49;11.00;99.90
8824;DHT22;4448;50.904;4.694;2022-11-25T10:16:33;10.90;99.90
8824;DHT22;4448;50.904;4.694;2022-11-25T10:19:09;10.90;99.90
8824;DHT22;4448;50.904;4.694;2022-11-25T10:21:35;10.90;99.90
8824;DHT22;4448;50.904;4.694;2022-11-25T10:24:03;11.00;99.90
8824;DHT22;4448;50.904;4.694;2022-11-25T10:26:35;11.10;99.90
8824;DHT22;4448;50.904;4.694;2022-11-25T10:29:21;11.20;99.90
8824;DHT22;4448;50.904;4.694;2022-11-25T10:31:48;11.00;99.90
8824;DHT22;4448;50.904;4.694;2022-11-25T10:36:50;11.20;99.90
8824;DHT22;4448;50.904;4.694;2022-11-25T10:39:20;11.10;99.90
8824;DHT22;4448;50.904;4.694;2022-11-25T10:41:56;11.20;99.90
8824;DHT22;4448;50.904;4.694;2022-11-25T10:44:32;11.20;99.90
8824;DHT22;4448;50.904;4.694;2022-11-25T10:47:03;11.30;99.90
8824;DHT22;4448;50.904;4.694;2022-11-25T10:52:19;11.30;99.90
8824;DHT22;4448;50.904;4.694;2022-11-25T10:54:57;11.30;99.90
8824;DHT22;4448;50.904;4.694;2022-11-25T10:57:33;11.40;99.90
8824;DHT22;4448;50.904;4.694;2022-11-25T11:00:00;11.40;99.90
8824;DHT22;4448;50.904;4.694;2022-11-25T11:07:44;11.40;99.90
8824;DHT22;4448;50.904;4.694;2022-11-25T11:10:23;11.40;99.90
8824;DHT22;4448;50.904;4.694;2022-11-25T11:15:47;11.50;99.90
8824;DHT22;4448;50.904;4.694;2022-11-25T11:18:52;11.60;99.90
8824;DHT22;4448;50.904;4.694;2022-11-25T11:21:41;11.60;99.90
8824;DHT22;4448;50.904;4.694;2022-11-25T11:24:28;11.90;99.90
8824;DHT22;4448;50.904;4.694;2022-11-25T11:27:22;11.70;99.90
8824;DHT22;4448;50.904;4.694;2022-11-25T11:29:48;11.70;99.90
8824;DHT22;4448;50.904;4.694;2022-11-25T11:32:28;11.80;99.90
8824;DHT22;4448;50.904;4.694;2022-11-25T11:37:44;11.70;99.90
8824;DHT22;4448;50.904;4.694;2022-11-25T11:45:53;11.70;99.90
8824;DHT22;4448;50.904;4.694;2022-11-25T11:54:22;11.70;99.90
8824;DHT22;4448;50.904;4.694;2022-11-25T11:59:44;11.90;99.90
8824;DHT22;4448;50.904;4.694;2022-11-25T12:02:16;11.90;99.90
8824;DHT22;4448;50.904;4.694;2022-11-25T12:07:29;12.00;99.90
8824;DHT22;4448;50.904;4.694;2022-11-25T12:10:01;12.10;99.90
8824;DHT22;4448;50.904;4.694;2022-11-25T12:12:39;12.00;99.90
8824;DHT22;4448;50.904;4.694;2022-11-25T12:15:28;12.00;99.90
8824;DHT22;4448;50.904;4.694;2022-11-25T12:18:01;12.00;99.90
8824;DHT22;4448;50.904;4.694;2022-11-25T12:23:30;12.10;99.90
8824;DHT22;4448;50.904;4.694;2022-11-25T12:26:04;12.20;99.90
8824;DHT22;4448;50.904;4.694;2022-11-25T12:28:37;12.30;99.90
8824;DHT22;4448;50.904;4.694;2022-11-25T12:31:21;12.30;99.90
8824;DHT22;4448;50.904;4.694;2022-11-25T12:37:01;12.10;99.90
8824;DHT22;4448;50.904;4.694;2022-11-25T12:39:43;12.00;99.90
8824;DHT22;4448;50.904;4.694;2022-11-25T12:42:15;11.90;99.90
8824;DHT22;4448;50.904;4.694;2022-11-25T12:45:11;12.00;99.90
8824;DHT22;4448;50.904;4.694;2022-11-25T12:47:39;12.10;99.90
8824;DHT22;4448;50.904;4.694;2022-11-25T12:50:05;12.30;99.90
8824;DHT22;4448;50.904;4.694;2022-11-25T12:53:07;12.20;99.90
8824;DHT22;4448;50.904;4.694;2022-11-25T12:55:39;12.40;99.90
8824;DHT22;4448;50.904;4.694;2022-11-25T12:58:29;12.50;99.90
8824;DHT22;4448;50.904;4.694;2022-11-25T13:03:59;12.50;99.90
8824;DHT22;4448;50.904;4.694;2022-11-25T13:17:21;12.70;99.90
8824;DHT22;4448;50.904;4.694;2022-11-25T13:19:47;12.70;99.90
8824;DHT22;4448;50.904;4.694;2022-11-25T13:24:45;12.80;99.90
8824;DHT22;4448;50.904;4.694;2022-11-25T13:27:31;12.70;99.90
8824;DHT22;4448;50.904;4.694;2022-11-25T13:29:58;12.70;99.90
8824;DHT22;4448;50.904;4.694;2022-11-25T13:32:31;12.60;99.90
8824;DHT22;4448;50.904;4.694;2022-11-25T13:37:54;12.70;99.90
8824;DHT22;4448;50.904;4.694;2022-11-25T13:42:54;13.30;99.90
8824;DHT22;4448;50.904;4.694;2022-11-25T13:45:37;13.00;99.90
8824;DHT22;4448;50.904;4.694;2022-11-25T13:48:30;12.90;99.90
8824;DHT22;4448;50.904;4.694;2022-11-25T13:51:32;12.80;99.90
8824;DHT22;4448;50.904;4.694;2022-11-25T13:54:04;12.70;99.90
8824;DHT22;4448;50.904;4.694;2022-11-25T13:56:31;12.40;99.90
8824;DHT22;4448;50.904;4.694;2022-11-25T14:01:37;12.10;99.90
8824;DHT22;4448;50.904;4.694;2022-11-25T14:04:08;11.90;99.90
8824;DHT22;4448;50.904;4.694;2022-11-25T14:17:40;11.70;99.90
8824;DHT22;4448;50.904;4.694;2022-11-25T14:25:56;12.00;99.90
8824;DHT22;4448;50.904;4.694;2022-11-25T14:28:24;11.90;99.90
8824;DHT22;4448;50.904;4.694;2022-11-25T14:30:54;11.70;99.90
8824;DHT22;4448;50.904;4.694;2022-11-25T14:33:30;11.60;99.90
8824;DHT22;4448;50.904;4.694;2022-11-25T14:36:06;11.50;99.90
8824;DHT22;4448;50.904;4.694;2022-11-25T14:38:48;11.50;99.90
8824;DHT22;4448;50.904;4.694;2022-11-25T14:41:30;11.50;99.90
8824;DHT22;4448;50.904;4.694;2022-11-25T14:44:00;11.50;99.90
8824;DHT22;4448;50.904;4.694;2022-11-25T14:46:28;11.50;99.90
8824;DHT22;4448;50.904;4.694;2022-11-25T14:49:01;11.50;99.90
8824;DHT22;4448;50.904;4.694;2022-11-25T14:51:33;11.40;99.90
8824;DHT22;4448;50.904;4.694;2022-11-25T14:53:59;11.40;99.90
8824;DHT22;4448;50.904;4.694;2022-11-25T14:56:28;11.30;99.90
8824;DHT22;4448;50.904;4.694;2022-11-25T14:58:56;11.40;99.90
8824;DHT22;4448;50.904;4.694;2022-11-25T15:03:50;11.30;99.90
8824;DHT22;4448;50.904;4.694;2022-11-25T15:06:16;11.10;99.90
8824;DHT22;4448;50.904;4.694;2022-11-25T15:08:52;11.10;99.90
8824;DHT22;4448;50.904;4.694;2022-11-25T15:11:21;11.10;99.90
8824;DHT22;4448;50.904;4.694;2022-11-25T15:14:03;11.10;99.90
8824;DHT22;4448;50.904;4.694;2022-11-25T15:16:38;11.10;99.90
8824;DHT22;4448;50.904;4.694;2022-11-25T15:19:11;10.90;99.90
8824;DHT22;4448;50.904;4.694;2022-11-25T15:21:40;11.00;99.90
8824;DHT22;4448;50.904;4.694;2022-11-25T15:24:21;10.90;99.90
8824;DHT22;4448;50.904;4.694;2022-11-25T15:26:51;10.90;99.90
8824;DHT22;4448;50.904;4.694;2022-11-25T15:29:17;10.90;99.90
8824;DHT22;4448;50.904;4.694;2022-11-25T15:31:44;11.00;99.90
8824;DHT22;4448;50.904;4.694;2022-11-25T15:34:12;10.80;99.90
8824;DHT22;4448;50.904;4.694;2022-11-25T15:36:39;10.70;99.90
8824;DHT22;4448;50.904;4.694;2022-11-25T15:41:48;10.60;99.90
8824;DHT22;4448;50.904;4.694;2022-11-25T15:44:27;10.70;99.90
8824;DHT22;4448;50.904;4.694;2022-11-25T15:47:01;10.50;99.90
8824;DHT22;4448;50.904;4.694;2022-11-25T15:49:27;10.40;99.90
8824;DHT22;4448;50.904;4.694;2022-11-25T15:52:02;10.40;99.90
8824;DHT22;4448;50.904;4.694;2022-11-25T15:54:30;10.20;99.90
8824;DHT22;4448;50.904;4.694;2022-11-25T15:57:01;10.10;99.90
8824;DHT22;4448;50.904;4.694;2022-11-25T16:02:37;10.00;99.90
8824;DHT22;4448;50.904;4.694;2022-11-25T16:15:49;9.80;99.90
8824;DHT22;4448;50.904;4.694;2022-11-25T16:18:17;9.70;99.90
8824;DHT22;4448;50.904;4.694;2022-11-25T16:20:53;9.70;99.90
8824;DHT22;4448;50.904;4.694;2022-11-25T16:23:24;9.70;99.90
8824;DHT22;4448;50.904;4.694;2022-11-25T16:28:55;9.60;99.90
8824;DHT22;4448;50.904;4.694;2022-11-25T16:31:23;9.50;99.90
8824;DHT22;4448;50.904;4.694;2022-11-25T16:33:59;9.50;99.90
8824;DHT22;4448;50.904;4.694;2022-11-25T16:36:25;9.50;99.90
8824;DHT22;4448;50.904;4.694;2022-11-25T16:38:52;9.60;99.90
8824;DHT22;4448;50.904;4.694;2022-11-25T16:41:21;9.30;99.90
8824;DHT22;4448;50.904;4.694;2022-11-25T16:43:49;9.30;99.90
8824;DHT22;4448;50.904;4.694;2022-11-25T16:46:17;9.30;99.90
8824;DHT22;4448;50.904;4.694;2022-11-25T16:48:43;9.30;99.90
8824;DHT22;4448;50.904;4.694;2022-11-25T16:51:20;9.40;99.90
8824;DHT22;4448;50.904;4.694;2022-11-25T16:53:47;9.30;99.90
8824;DHT22;4448;50.904;4.694;2022-11-25T16:56:23;9.30;99.90
8824;DHT22;4448;50.904;4.694;2022-11-25T16:58:51;9.30;99.90
8824;DHT22;4448;50.904;4.694;2022-11-25T17:01:18;9.20;99.90
8824;DHT22;4448;50.904;4.694;2022-11-25T17:03:45;9.20;99.90
8824;DHT22;4448;50.904;4.694;2022-11-25T17:06:17;9.20;99.90
8824;DHT22;4448;50.904;4.694;2022-11-25T17:08:43;9.20;99.90
8824;DHT22;4448;50.904;4.694;2022-11-25T17:11:32;9.20;99.90
8824;DHT22;4448;50.904;4.694;2022-11-25T17:14:02;9.10;99.90
8824;DHT22;4448;50.904;4.694;2022-11-25T17:16:29;9.10;99.90
8824;DHT22;4448;50.904;4.694;2022-11-25T17:18:57;9.10;99.90
8824;DHT22;4448;50.904;4.694;2022-11-25T17:21:23;9.10;99.90
8824;DHT22;4448;50.904;4.694;2022-11-25T17:24:00;9.30;99.90
8824;DHT22;4448;50.904;4.694;2022-11-25T17:26:34;9.00;99.90
8824;DHT22;4448;50.904;4.694;2022-11-25T17:29:03;9.00;99.90
8824;DHT22;4448;50.904;4.694;2022-11-25T17:31:32;9.00;99.90
8824;DHT22;4448;50.904;4.694;2022-11-25T17:33:58;8.90;99.90
8824;DHT22;4448;50.904;4.694;2022-11-25T17:36:23;8.90;99.90
8824;DHT22;4448;50.904;4.694;2022-11-25T17:38:50;8.90;99.90
8824;DHT22;4448;50.904;4.694;2022-11-25T17:41:18;8.80;99.90
8824;DHT22;4448;50.904;4.694;2022-11-25T17:43:46;9.00;99.90
8824;DHT22;4448;50.904;4.694;2022-11-25T17:46:15;9.40;99.90
8824;DHT22;4448;50.904;4.694;2022-11-25T17:48:41;8.90;99.90
8824;DHT22;4448;50.904;4.694;2022-11-25T17:51:08;9.10;99.90
8824;DHT22;4448;50.904;4.694;2022-11-25T17:53:34;8.60;99.90
8824;DHT22;4448;50.904;4.694;2022-11-25T17:56:26;8.70;99.90
8824;DHT22;4448;50.904;4.694;2022-11-25T17:58:52;8.60;99.90
8824;DHT22;4448;50.904;4.694;2022-11-25T18:01:19;9.10;99.90
8824;DHT22;4448;50.904;4.694;2022-11-25T18:03:44;8.60;99.90
8824;DHT22;4448;50.904;4.694;2022-11-25T18:06:10;8.60;99.90
8824;DHT22;4448;50.904;4.694;2022-11-25T18:08:36;8.60;99.90
8824;DHT22;4448;50.904;4.694;2022-11-25T18:11:03;8.60;99.90
8824;DHT22;4448;50.904;4.694;2022-11-25T18:13:34;8.60;99.90
8824;DHT22;4448;50.904;4.694;2022-11-25T18:16:01;8.70;99.90
8824;DHT22;4448;50.904;4.694;2022-11-25T18:18:27;8.80;99.90
8824;DHT22;4448;50.904;4.694;2022-11-25T18:20:52;7.80;99.90
8824;DHT22;4448;50.904;4.694;2022-11-25T18:23:18;8.50;99.90
8824;DHT22;4448;50.904;4.694;2022-11-25T18:25:44;8.50;99.90